Terminal Aerodrome Forecast
Issued by NWS Corpus Christi, TX

Home | Current Version | Previous Version | Text Only | Print | Product List | Glossary On
Versions: 1 2 3 4 5 6 7 8 9 10 11 12 13 14 15 16 17 18 19 20
359
FTUS44 KCRP 242335
TAFVCT
TAF
KVCT 242335Z 2500/2524 17012G22KT P6SM VCTS BKN020CB OVC030
     FM250200 17010KT P6SM SCT035 BKN100
     FM250900 20004KT 3SM BR SCT009 BKN012
      TEMPO 2509/2512 1SM BR BKN009
     FM251400 32008KT P6SM BKN020
     FM251600 36012G18KT P6SM SCT035=

USA.gov is the U.S. government's official web portal to all federal, state and local government web resources and services.